createdAt,value
2022-09-10T00:01:20.338Z,99221.44
2022-09-10T00:03:23.985Z,99219.59
2022-09-10T00:05:27.589Z,99216.41
2022-09-10T00:07:32.711Z,99217.28
2022-09-10T00:09:34.804Z,99218.72
2022-09-10T00:11:39.784Z,99211.91
2022-09-10T00:13:42.926Z,99208.03
2022-09-10T00:15:51.992Z,99209.47
2022-09-10T00:17:54.177Z,99210.22
2022-09-10T00:19:56.604Z,99207.91
2022-09-10T00:21:59.388Z,99206.75
2022-09-10T00:24:01.962Z,99213.38
2022-09-10T00:26:31.944Z,99211.50
2022-09-10T00:28:34.192Z,99219.16
2022-09-10T00:30:45.146Z,99223.59
2022-09-10T00:32:52.841Z,99223.75
2022-09-10T00:34:55.359Z,99225.91
2022-09-10T00:36:58.272Z,99229.25
2022-09-10T00:39:07.756Z,99227.34
2022-09-10T00:41:15.068Z,99217.69
2022-09-10T00:43:20.713Z,99212.94
2022-09-10T00:45:31.216Z,99205.56
2022-09-10T00:47:37.889Z,99196.66
2022-09-10T00:49:45.404Z,99195.22
2022-09-10T00:51:50.693Z,99189.28
2022-09-10T00:53:54.329Z,99178.75
2022-09-10T00:56:00.600Z,99178.63
2022-09-10T00:58:05.776Z,99181.06
2022-09-10T01:00:12.731Z,99171.69
2022-09-10T01:02:16.851Z,99187.84
2022-09-10T01:04:19.365Z,99177.34
2022-09-10T01:06:21.580Z,99185.13
2022-09-10T01:08:23.801Z,99184.53
2022-09-10T01:10:32.732Z,99185.84
2022-09-10T01:12:56.324Z,99187.56
2022-09-10T01:15:22.064Z,99192.06
2022-09-10T01:17:27.351Z,99192.03
2022-09-10T01:19:35.753Z,99201.25
2022-09-10T01:21:55.335Z,99196.53
2022-09-10T01:24:10.668Z,99199.38
2022-09-10T01:26:21.182Z,99195.91
2022-09-10T01:28:35.716Z,99185.84
2022-09-10T01:30:45.945Z,99176.63
2022-09-10T01:33:05.976Z,99171.88
2022-09-10T01:35:18.699Z,99154.72
2022-09-10T01:37:28.051Z,99139.16
2022-09-10T01:39:34.283Z,99126.63
2022-09-10T01:45:52.233Z,99122.75
2022-09-10T01:47:54.518Z,99131.81
2022-09-10T01:50:13.503Z,99137.72
2022-09-10T01:52:46.084Z,99131.97
2022-09-10T01:54:56.664Z,99123.31
2022-09-10T01:57:14.102Z,99133.69
2022-09-10T01:59:38.360Z,99129.94
2022-09-10T02:01:54.032Z,99129.50
2022-09-10T02:04:03.857Z,99125.06
2022-09-10T02:06:09.736Z,99111.06
2022-09-10T02:08:20.419Z,99105.44
2022-09-10T02:10:23.945Z,99108.63
2022-09-10T02:12:26.245Z,99103.16
2022-09-10T02:14:55.654Z,99099.69
2022-09-10T02:17:09.185Z,99101.13
2022-09-10T02:19:11.796Z,99105.91
2022-09-10T02:21:17.767Z,99103.88
2022-09-10T02:23:24.811Z,99101.88
2022-09-10T02:25:33.585Z,99101.72
2022-09-10T02:27:38.563Z,99098.25
2022-09-10T02:29:41.218Z,99095.06
2022-09-10T02:31:47.776Z,99082.28
2022-09-10T02:33:50.951Z,99070.75
2022-09-10T02:35:53.872Z,99079.81
2022-09-10T02:37:56.947Z,99074.63
2022-09-10T02:39:59.577Z,99084.28
2022-09-10T02:42:02.083Z,99088.63
2022-09-10T02:44:05.290Z,99082.41
2022-09-10T02:46:07.770Z,99086.16
2022-09-10T02:48:12.197Z,99088.91
2022-09-10T02:50:14.354Z,99079.22
2022-09-10T02:52:16.482Z,99076.19
2022-09-10T02:54:22.869Z,99075.19
2022-09-10T02:56:25.229Z,99067.84
2022-09-10T02:58:34.269Z,99071.16
2022-09-10T03:00:38.681Z,99077.19
2022-09-10T03:02:41.483Z,99071.16
2022-09-10T03:04:43.775Z,99065.13
2022-09-10T03:06:47.271Z,99058.63
2022-09-10T03:08:50.117Z,99060.22
2022-09-10T03:10:52.290Z,99071.88
2022-09-10T03:12:54.443Z,99063.81
2022-09-10T03:14:58.010Z,99073.31
2022-09-10T03:17:03.978Z,99074.19
2022-09-10T03:19:06.026Z,99078.06
2022-09-10T03:21:11.939Z,99077.22
2022-09-10T03:23:13.850Z,99084.09
2022-09-10T03:25:16.327Z,99078.34
2022-09-10T03:27:18.951Z,99087.00
2022-09-10T03:29:23.822Z,99085.84
2022-09-10T03:31:29.319Z,99092.03
2022-09-10T03:33:37.554Z,99088.69
2022-09-10T03:35:42.078Z,99101.63
2022-09-10T03:37:44.432Z,99089.44
2022-09-10T03:39:46.615Z,99083.38
2022-09-10T03:41:51.127Z,99080.50
2022-09-10T03:43:55.002Z,99077.75
2022-09-10T03:45:57.776Z,99066.97
2022-09-10T03:48:00.142Z,99067.69
2022-09-10T03:50:02.336Z,99074.31
2022-09-10T03:52:06.828Z,99075.16
2022-09-10T03:54:14.117Z,99082.06
2022-09-10T03:56:24.061Z,99092.13
2022-09-10T03:58:27.017Z,99088.88
2022-09-10T04:00:29.606Z,99082.38
2022-09-10T04:02:31.831Z,99089.84
2022-09-10T04:04:34.571Z,99088.69
2022-09-10T04:06:37.750Z,99081.34
2022-09-10T04:08:41.035Z,99087.41
2022-09-10T04:10:45.182Z,99085.41
2022-09-10T04:12:51.909Z,99066.22
2022-09-10T04:14:54.047Z,99066.22
2022-09-10T04:16:59.787Z,99074.13
2022-09-10T04:19:02.737Z,99077.31
2022-09-10T04:21:07.921Z,99080.59
2022-09-10T04:23:13.916Z,99078.28
2022-09-10T04:25:19.668Z,99078.28
2022-09-10T04:27:22.505Z,99081.28
2022-09-10T04:29:24.717Z,99077.13
2022-09-10T04:31:26.883Z,99064.03
2022-09-10T04:33:33.664Z,99066.75
2022-09-10T04:35:39.802Z,99074.78
2022-09-10T04:37:43.268Z,99072.78
2022-09-10T04:39:46.519Z,99073.53
2022-09-10T04:41:49.027Z,99069.66
2022-09-10T04:43:51.893Z,99064.19
2022-09-10T04:45:55.594Z,99065.47
2022-09-10T04:48:02.573Z,99066.34
2022-09-10T04:50:09.077Z,99086.91
2022-09-10T04:52:12.113Z,99079.00
2022-09-10T04:54:14.591Z,99076.25
2022-09-10T04:56:20.750Z,99074.53
2022-09-10T04:58:24.330Z,99073.81
2022-09-10T05:01:16.846Z,99063.00
2022-09-10T05:03:20.975Z,99047.63
2022-09-10T05:05:26.809Z,99053.94
2022-09-10T05:07:30.458Z,99052.97
2022-09-10T05:09:34.036Z,99044.31
2022-09-10T05:11:41.639Z,99053.22
2022-09-10T05:13:47.453Z,99055.81
2022-09-10T05:15:53.843Z,99066.19
2022-09-10T05:17:57.100Z,99068.06
2022-09-10T05:20:00.525Z,99066.19
2022-09-10T05:22:05.668Z,99056.59
2022-09-10T05:24:08.261Z,99061.44
2022-09-10T05:26:11.437Z,99052.69
2022-09-10T05:28:13.926Z,99067.31
2022-09-10T05:30:16.083Z,99078.84
2022-09-10T05:32:20.321Z,99087.03
2022-09-10T05:34:24.715Z,99082.28
2022-09-10T05:36:34.429Z,99076.09
2022-09-10T05:38:39.958Z,99078.84
2022-09-10T05:40:43.298Z,99075.25
2022-09-10T05:42:46.608Z,99085.31
2022-09-10T05:44:48.975Z,99081.88
2022-09-10T05:46:54.563Z,99062.75
2022-09-10T05:48:57.493Z,99049.69
2022-09-10T05:51:03.286Z,99029.94
2022-09-10T05:53:05.967Z,99027.22
2022-09-10T05:55:09.455Z,99033.97
2022-09-10T05:57:12.600Z,99033.09
2022-09-10T05:59:24.213Z,99043.59
2022-09-10T06:01:28.755Z,99042.28
2022-09-10T06:03:31.766Z,99036.00
2022-09-10T06:05:36.569Z,99036.84
2022-09-10T06:07:42.330Z,99044.75
2022-09-10T06:09:45.973Z,99040.16
2022-09-10T06:12:10.101Z,99040.16
2022-09-10T06:14:14.726Z,99046.59
2022-09-10T06:16:18.059Z,99043.63
2022-09-10T06:18:20.933Z,99041.88
2022-09-10T06:20:23.913Z,99039.75
2022-09-10T06:22:28.639Z,99042.03
2022-09-10T06:24:31.329Z,99043.78
2022-09-10T06:26:33.883Z,99044.06
2022-09-10T06:28:41.415Z,99046.78
2022-09-10T06:30:43.970Z,99037.72
2022-09-10T06:32:46.570Z,99043.06
2022-09-10T06:34:49.115Z,99049.25
2022-09-10T06:36:53.411Z,99039.75
2022-09-10T06:38:59.568Z,99045.81
2022-09-10T06:41:05.605Z,99043.66
2022-09-10T06:43:13.398Z,99051.72
2022-09-10T06:45:40.479Z,99047.81
2022-09-10T06:50:25.623Z,99037.88
2022-09-10T06:52:30.769Z,99043.94
2022-09-10T06:54:37.584Z,99045.53
2022-09-10T06:56:53.759Z,99042.22
2022-09-10T06:59:01.476Z,99043.94
2022-09-10T07:01:15.242Z,99039.91
2022-09-10T07:03:22.469Z,99034.75
2022-09-10T07:05:25.025Z,99030.59
2022-09-10T07:07:27.163Z,99024.81
2022-09-10T07:09:28.932Z,99030.00
2022-09-10T07:11:33.361Z,99038.63
2022-09-10T07:13:37.618Z,99049.28
2022-09-10T07:15:46.824Z,99061.25
2022-09-10T07:17:50.830Z,99055.47
2022-09-10T07:19:53.518Z,99047.28
2022-09-10T07:22:03.798Z,99058.22
2022-09-10T07:24:12.220Z,99059.94
2022-09-10T07:26:18.369Z,99066.28
2022-09-10T07:28:23.649Z,99055.06
2022-09-10T07:30:25.892Z,99062.41
2022-09-10T07:32:27.692Z,99060.94
2022-09-10T07:34:38.863Z,99069.00
2022-09-10T07:36:41.379Z,99083.28
2022-09-10T07:38:44.169Z,99073.19
2022-09-10T07:40:48.359Z,99085.59
2022-09-10T07:42:52.549Z,99091.06
2022-09-10T07:44:54.724Z,99085.59
2022-09-10T07:46:56.833Z,99091.91
2022-09-10T07:49:00.838Z,99082.38
2022-09-10T07:51:08.167Z,99083.09
2022-09-10T07:53:11.383Z,99092.34
2022-09-10T07:55:14.307Z,99097.22
2022-09-10T07:57:17.801Z,99092.16
2022-09-10T07:59:19.525Z,99107.00
2022-09-10T08:01:26.890Z,99104.97
2022-09-10T08:03:29.693Z,99106.81
2022-09-10T08:05:32.215Z,99106.69
2022-09-10T08:07:36.062Z,99112.03
2022-09-10T08:09:37.927Z,99118.97
2022-09-10T08:11:41.343Z,99115.34
2022-09-10T08:13:48.410Z,99117.78
2022-09-10T08:15:50.490Z,99112.19
2022-09-10T08:17:52.583Z,99114.91
2022-09-10T08:19:56.949Z,99120.81
2022-09-10T08:21:58.808Z,99116.19
2022-09-10T08:24:07.615Z,99124.06
2022-09-10T08:26:10.146Z,99128.34
2022-09-10T08:28:13.091Z,99139.25
2022-09-10T08:30:15.342Z,99131.28
2022-09-10T08:32:17.529Z,99132.69
2022-09-10T08:34:20.155Z,99129.28
2022-09-10T08:36:28.423Z,99132.31
2022-09-10T08:38:33.000Z,99131.03
2022-09-10T08:40:35.377Z,99127.41
2022-09-10T08:42:43.724Z,99133.06
2022-09-10T08:45:08.704Z,99128.88
2022-09-10T08:47:10.435Z,99132.78
2022-09-10T08:49:25.443Z,99120.06
2022-09-10T08:51:33.037Z,99124.22
2022-09-10T08:54:09.689Z,99123.63
2022-09-10T08:56:19.861Z,99122.75
2022-09-10T08:58:27.836Z,99127.59
2022-09-10T09:00:39.231Z,99122.28
2022-09-10T09:02:50.714Z,99122.53
2022-09-10T09:05:22.853Z,99121.13
2022-09-10T09:07:37.470Z,99124.41
2022-09-10T09:09:39.293Z,99130.63
2022-09-10T09:11:59.727Z,99122.84
2022-09-10T09:14:26.050Z,99119.69
2022-09-10T09:16:47.987Z,99112.91
2022-09-10T09:19:17.543Z,99115.78
2022-09-10T09:21:48.540Z,99119.06
2022-09-10T09:24:13.633Z,99113.31
2022-09-10T09:26:34.977Z,99114.69
2022-09-10T09:28:56.649Z,99116.13
2022-09-10T09:31:09.612Z,99104.13
2022-09-10T09:33:19.870Z,99108.63
2022-09-10T09:35:32.645Z,99108.13
2022-09-10T09:37:38.270Z,99118.63
2022-09-10T09:39:55.895Z,99118.31
2022-09-10T09:42:12.674Z,99112.06
2022-09-10T09:44:28.125Z,99117.81
2022-09-10T09:46:34.434Z,99111.69
2022-09-10T09:48:41.475Z,99115.13
2022-09-10T09:50:46.869Z,99114.75
2022-09-10T09:52:54.951Z,99105.97
2022-09-10T09:55:14.222Z,99120.28
2022-09-10T09:57:20.664Z,99120.78
2022-09-10T09:59:30.517Z,99115.75
2022-09-10T10:01:33.426Z,99111.28
2022-09-10T10:03:44.508Z,99112.03
2022-09-10T10:05:48.740Z,99113.78
2022-09-10T10:07:50.779Z,99108.13
2022-09-10T10:09:52.980Z,99112.44
2022-09-10T10:12:06.140Z,99107.97
2022-09-10T10:14:26.394Z,99101.63
2022-09-10T10:16:35.917Z,99098.59
2022-09-10T10:18:37.868Z,99094.19
2022-09-10T10:20:41.391Z,99102.97
2022-09-10T10:22:45.823Z,99095.84
2022-09-10T10:24:50.204Z,99089.91
2022-09-10T10:26:52.039Z,99083.75
2022-09-10T10:29:06.779Z,99093.41
2022-09-10T10:31:08.688Z,99086.28
2022-09-10T10:33:19.367Z,99096.38
2022-09-10T10:35:33.375Z,99098.28
2022-09-10T10:38:02.054Z,99102.63
2022-09-10T10:40:18.519Z,99096.81
2022-09-10T10:42:38.652Z,99102.28
2022-09-10T10:45:04.393Z,99104.09
2022-09-10T10:47:24.328Z,99102.59
2022-09-10T10:50:18.591Z,99105.03
2022-09-10T10:52:36.976Z,99112.41
2022-09-10T10:54:51.824Z,99110.22
2022-09-10T10:56:59.982Z,99103.69
2022-09-10T10:59:40.392Z,99105.72
2022-09-10T11:01:55.934Z,99103.53
2022-09-10T11:04:16.346Z,99104.63
2022-09-10T11:06:24.693Z,99105.91
2022-09-10T11:08:33.229Z,99105.03
2022-09-10T11:10:43.016Z,99098.53
2022-09-10T11:13:03.609Z,99104.41
2022-09-10T11:15:19.976Z,99096.50
2022-09-10T11:17:46.496Z,99105.25
2022-09-10T11:20:27.743Z,99100.47
2022-09-10T11:22:39.639Z,99099.91
2022-09-10T11:24:45.639Z,99101.81
2022-09-10T11:27:09.185Z,99100.66
2022-09-10T11:29:38.653Z,99100.44
2022-09-10T11:31:47.744Z,99100.69
2022-09-10T11:34:02.439Z,99103.94
2022-09-10T11:36:10.766Z,99114.53
2022-09-10T11:38:49.629Z,99115.31
2022-09-10T11:41:07.462Z,99115.97
2022-09-10T11:43:20.798Z,99116.88
2022-09-10T11:45:49.226Z,99119.91
2022-09-10T11:48:10.707Z,99109.94
2022-09-10T11:50:34.440Z,99125.63
2022-09-10T11:52:38.384Z,99126.56
2022-09-10T11:54:40.879Z,99121.06
2022-09-10T11:56:53.670Z,99110.28
2022-09-10T11:59:07.912Z,99122.50
2022-09-10T12:01:29.742Z,99118.50
2022-09-10T12:03:48.750Z,99112.31
2022-09-10T12:06:14.328Z,99115.28
2022-09-10T12:08:44.318Z,99118.16
2022-09-10T12:11:08.096Z,99116.72
2022-09-10T12:13:15.488Z,99119.47
2022-09-10T12:15:24.302Z,99116.28
2022-09-10T12:17:34.597Z,99109.88
2022-09-10T12:19:46.331Z,99098.66
2022-09-10T12:21:53.309Z,99095.00
2022-09-10T12:23:56.700Z,99101.59
2022-09-10T12:26:00.195Z,99108.47
2022-09-10T12:28:08.216Z,99103.28
2022-09-10T12:30:36.362Z,99109.97
2022-09-10T12:32:38.795Z,99118.44
2022-09-10T12:34:41.392Z,99111.06
2022-09-10T12:36:43.338Z,99114.53
2022-09-10T12:38:48.337Z,99112.25
2022-09-10T12:40:50.655Z,99106.44
2022-09-10T12:42:57.938Z,99106.44
2022-09-10T12:45:00.682Z,99114.53
2022-09-10T12:47:17.738Z,99110.34
2022-09-10T12:49:20.354Z,99106.69
2022-09-10T12:51:25.120Z,99095.38
2022-09-10T12:53:59.831Z,99095.53
2022-09-10T12:56:16.937Z,99094.22
2022-09-10T12:58:41.118Z,99093.06
2022-09-10T13:01:08.720Z,99088.66
2022-09-10T13:03:17.775Z,99088.53
2022-09-10T13:05:26.664Z,99084.78
2022-09-10T13:07:40.404Z,99086.19
2022-09-10T13:09:42.882Z,99085.56
2022-09-10T13:11:49.778Z,99083.50
2022-09-10T13:14:01.798Z,99093.84
2022-09-10T13:16:06.013Z,99091.00
2022-09-10T13:18:29.011Z,99094.81
2022-09-10T13:20:34.924Z,99089.75
2022-09-10T13:22:56.548Z,99083.97
2022-09-10T13:25:07.461Z,99087.59
2022-09-10T13:27:12.866Z,99088.16
2022-09-10T13:29:38.041Z,99084.91
2022-09-10T13:31:47.865Z,99086.81
2022-09-10T13:33:49.751Z,99082.38
2022-09-10T13:36:10.717Z,99080.72
2022-09-10T13:38:37.704Z,99084.16
2022-09-10T13:41:06.612Z,99093.84
2022-09-10T13:43:41.983Z,99093.66
2022-09-10T13:46:05.427Z,99090.56
2022-09-10T13:48:22.033Z,99090.94
2022-09-10T13:50:35.328Z,99082.41
2022-09-10T13:52:39.190Z,99081.19
2022-09-10T13:54:51.637Z,99081.66
2022-09-10T13:56:55.701Z,99089.13
2022-09-10T13:59:01.232Z,99091.53
2022-09-10T14:01:05.653Z,99094.13
2022-09-10T14:03:16.646Z,99082.75
2022-09-10T14:05:34.108Z,99075.84
2022-09-10T14:07:36.362Z,99066.06
2022-09-10T14:09:43.618Z,99064.13
2022-09-10T14:11:47.047Z,99068.44
2022-09-10T14:14:18.770Z,99069.00
2022-09-10T14:16:33.530Z,99073.63
2022-09-10T14:18:59.493Z,99065.34
2022-09-10T14:21:02.123Z,99067.28
2022-09-10T14:23:06.899Z,99072.78
2022-09-10T14:25:34.792Z,99087.56
2022-09-10T14:27:42.354Z,99087.22
2022-09-10T14:29:44.656Z,99095.34
2022-09-10T14:31:46.935Z,99103.59
2022-09-10T14:33:49.258Z,99124.41
2022-09-10T14:35:52.944Z,99129.00
2022-09-10T14:37:55.333Z,99141.06
2022-09-10T14:40:01.681Z,99158.84
2022-09-10T14:42:27.452Z,99163.38
2022-09-10T14:44:30.198Z,99187.44
2022-09-10T14:46:57.314Z,99188.50
2022-09-10T14:48:59.297Z,99178.78
2022-09-10T14:51:20.084Z,99149.19
2022-09-10T14:53:22.213Z,99144.06
2022-09-10T14:55:27.313Z,99135.59
2022-09-10T14:57:32.804Z,99113.50
2022-09-10T14:59:38.818Z,99124.44
2022-09-10T15:01:42.557Z,99134.94
2022-09-10T15:03:45.256Z,99125.44
2022-09-10T15:05:47.581Z,99136.66
2022-09-10T15:07:50.493Z,99144.41
2022-09-10T15:09:53.948Z,99139.28
2022-09-10T15:11:56.334Z,99143.94
2022-09-10T15:13:59.502Z,99139.66
2022-09-10T15:16:02.315Z,99142.84
2022-09-10T15:18:09.221Z,99137.94
2022-09-10T15:20:17.037Z,99124.97
2022-09-10T15:22:26.816Z,99116.63
2022-09-10T15:24:29.075Z,99111.44
2022-09-10T15:26:31.467Z,99109.66
2022-09-10T15:28:33.676Z,99110.69
2022-09-10T15:30:38.896Z,99116.31
2022-09-10T15:32:41.251Z,99113.56
2022-09-10T15:34:43.983Z,99121.22
2022-09-10T15:36:47.107Z,99124.94
2022-09-10T15:38:55.141Z,99129.16
2022-09-10T15:41:08.457Z,99139.72
2022-09-10T15:43:10.873Z,99126.88
2022-09-10T15:45:13.016Z,99121.69
2022-09-10T15:47:15.074Z,99122.56
2022-09-10T15:49:17.964Z,99117.66
2022-09-10T15:51:23.089Z,99121.69
2022-09-10T15:53:25.427Z,99116.34
2022-09-10T15:55:27.860Z,99117.91
2022-09-10T15:57:31.243Z,99111.13
2022-09-10T15:59:33.271Z,99113.75
2022-09-10T16:01:38.445Z,99119.91
2022-09-10T16:03:48.232Z,99122.09
2022-09-10T16:05:50.465Z,99127.88
2022-09-10T16:07:52.931Z,99133.34
2022-09-10T16:09:55.416Z,99133.19
2022-09-10T16:11:57.462Z,99121.69
2022-09-10T16:14:04.551Z,99129.91
2022-09-10T16:16:12.316Z,99140.44
2022-09-10T16:18:14.465Z,99138.72
2022-09-10T16:20:16.849Z,99132.22
2022-09-10T16:22:21.809Z,99136.53
2022-09-10T16:24:26.552Z,99137.69
2022-09-10T16:26:31.635Z,99140.44
2022-09-10T16:28:34.844Z,99133.22
2022-09-10T16:30:37.207Z,99135.66
2022-09-10T16:32:39.446Z,99135.41
2022-09-10T16:34:41.500Z,99139.44
2022-09-10T16:36:43.841Z,99144.34
2022-09-10T16:38:46.129Z,99141.91
2022-09-10T16:40:48.489Z,99148.97
2022-09-10T16:42:50.436Z,99154.00
2022-09-10T16:44:52.532Z,99157.19
2022-09-10T16:46:57.825Z,99149.97
2022-09-10T16:48:59.963Z,99157.91
2022-09-10T16:51:04.289Z,99158.31
2022-09-10T16:53:10.132Z,99166.91
2022-09-10T16:55:13.859Z,99167.66
2022-09-10T16:57:19.277Z,99169.66
2022-09-10T16:59:23.742Z,99164.38
2022-09-10T17:01:28.548Z,99166.53
2022-09-10T17:03:31.598Z,99165.09
2022-09-10T17:05:33.672Z,99165.91
2022-09-10T17:07:35.708Z,99165.63
2022-09-10T17:09:38.022Z,99170.84
2022-09-10T17:11:40.259Z,99162.94
2022-09-10T17:13:44.039Z,99157.88
2022-09-10T17:15:46.353Z,99159.59
2022-09-10T17:17:49.411Z,99170.41
2022-09-10T17:19:51.405Z,99162.09
2022-09-10T17:21:55.824Z,99160.03
2022-09-10T17:24:00.078Z,99164.66
2022-09-10T17:26:07.515Z,99163.50
2022-09-10T17:28:10.483Z,99160.06
2022-09-10T17:30:12.697Z,99167.09
2022-09-10T17:32:14.877Z,99175.44
2022-09-10T17:34:17.535Z,99169.84
2022-09-10T17:36:19.883Z,99176.03
2022-09-10T17:38:21.765Z,99170.97
2022-09-10T17:40:24.109Z,99173.84
2022-09-10T17:42:26.068Z,99175.53
2022-09-10T17:44:28.476Z,99171.91
2022-09-10T17:46:31.301Z,99180.09
2022-09-10T17:48:38.086Z,99175.72
2022-09-10T17:50:49.026Z,99175.72
2022-09-10T17:52:51.317Z,99178.69
2022-09-10T17:54:54.082Z,99180.28
2022-09-10T17:56:55.978Z,99179.75
2022-09-10T17:59:04.651Z,99182.50
2022-09-10T18:01:11.869Z,99182.94
2022-09-10T18:03:14.551Z,99184.94
2022-09-10T18:05:17.065Z,99189.41
2022-09-10T18:07:18.998Z,99184.81
2022-09-10T18:09:22.095Z,99185.63
2022-09-10T18:11:27.339Z,99191.09
2022-09-10T18:13:29.583Z,99185.63
2022-09-10T18:15:31.568Z,99197.84
2022-09-10T18:17:33.621Z,99193.38
2022-09-10T18:19:35.554Z,99201.47
2022-09-10T18:21:38.863Z,99207.91
2022-09-10T18:23:41.703Z,99206.31
2022-09-10T18:25:47.877Z,99211.06
2022-09-10T18:27:52.031Z,99206.72
2022-09-10T18:29:54.026Z,99208.88
2022-09-10T18:31:58.376Z,99202.28
2022-09-10T18:34:02.177Z,99202.16
2022-09-10T18:36:13.042Z,99206.16
2022-09-10T18:38:15.040Z,99204.28
2022-09-10T18:40:17.861Z,99206.41
2022-09-10T18:42:19.784Z,99207.97
2022-09-10T18:44:24.845Z,99210.47
2022-09-10T18:46:29.197Z,99219.19
2022-09-10T18:48:34.956Z,99213.03
2022-09-10T18:50:36.865Z,99199.22
2022-09-10T18:52:39.137Z,99201.94
2022-09-10T18:54:45.923Z,99199.94
2022-09-10T18:56:50.028Z,99197.09
2022-09-10T18:59:00.614Z,99197.34
2022-09-10T19:01:11.457Z,99203.94
2022-09-10T19:03:13.249Z,99201.66
2022-09-10T19:05:15.135Z,99204.69
2022-09-10T19:07:17.670Z,99204.69
2022-09-10T19:09:21.884Z,99198.34
2022-09-10T19:11:25.592Z,99199.38
2022-09-10T19:13:27.411Z,99200.22
2022-09-10T19:15:29.214Z,99192.16
2022-09-10T19:17:31.464Z,99200.50
2022-09-10T19:19:36.357Z,99199.59
2022-09-10T19:21:38.620Z,99208.53
2022-09-10T19:23:40.363Z,99197.63
2022-09-10T19:25:53.461Z,99203.22
2022-09-10T19:27:55.208Z,99205.25
2022-09-10T19:29:56.999Z,99203.09
2022-09-10T19:32:00.764Z,99202.97
2022-09-10T19:34:05.480Z,99203.97
2022-09-10T19:36:14.340Z,99197.63
2022-09-10T19:38:36.729Z,99211.41
2022-09-10T19:40:37.942Z,99208.84
2022-09-10T19:42:39.740Z,99200.91
2022-09-10T19:44:41.459Z,99202.50
2022-09-10T19:46:44.892Z,99210.81
2022-09-10T19:48:47.694Z,99199.91
2022-09-10T19:50:49.818Z,99204.50
2022-09-10T19:52:51.890Z,99202.16
2022-09-10T19:54:53.828Z,99207.03
2022-09-10T19:56:56.412Z,99209.03
2022-09-10T19:58:59.842Z,99215.34
2022-09-10T20:01:10.525Z,99208.56
2022-09-10T20:03:14.417Z,99209.41
2022-09-10T20:05:16.733Z,99203.47
2022-09-10T20:07:19.053Z,99203.28
2022-09-10T20:09:21.367Z,99207.06
2022-09-10T20:11:25.362Z,99199.88
2022-09-10T20:13:27.745Z,99202.94
2022-09-10T20:15:29.839Z,99197.63
2022-09-10T20:17:31.909Z,99208.53
2022-09-10T20:19:33.829Z,99201.84
2022-09-10T20:21:38.368Z,99193.41
2022-09-10T20:23:44.727Z,99195.16
2022-09-10T20:25:46.863Z,99194.03
2022-09-10T20:27:49.338Z,99196.03
2022-09-10T20:29:51.453Z,99197.00
2022-09-10T20:31:53.846Z,99196.13
2022-09-10T20:34:19.905Z,99198.28
2022-09-10T20:36:22.985Z,99194.41
2022-09-10T20:38:26.295Z,99192.53
2022-09-10T20:40:30.048Z,99195.28
2022-09-10T20:42:33.794Z,99191.81
2022-09-10T20:44:36.760Z,99193.56
2022-09-10T20:46:42.056Z,99189.81
2022-09-10T20:48:49.005Z,99185.84
2022-09-10T20:50:58.560Z,99177.91
2022-09-10T20:53:00.986Z,99188.56
2022-09-10T20:55:03.946Z,99183.97
2022-09-10T20:57:06.133Z,99174.31
2022-09-10T20:59:08.495Z,99173.31
2022-09-10T21:01:16.866Z,99171.97
2022-09-10T21:03:18.990Z,99171.59
2022-09-10T21:05:21.852Z,99177.66
2022-09-10T21:07:23.958Z,99175.06
2022-09-10T21:09:26.051Z,99175.94
2022-09-10T21:11:31.160Z,99173.06
2022-09-10T21:13:39.648Z,99170.13
2022-09-10T21:15:43.567Z,99168.72
2022-09-10T21:17:47.522Z,99169.84
2022-09-10T21:19:49.949Z,99177.56
2022-09-10T21:21:52.283Z,99173.97
2022-09-10T21:24:05.350Z,99183.56
2022-09-10T21:26:07.838Z,99180.28
2022-09-10T21:28:10.292Z,99178.69
2022-09-10T21:30:13.333Z,99173.22
2022-09-10T21:32:16.201Z,99177.09
2022-09-10T21:34:19.601Z,99183.56
2022-09-10T21:36:21.875Z,99187.41
2022-09-10T21:38:25.727Z,99186.53
2022-09-10T21:40:27.721Z,99187.66
2022-09-10T21:42:32.290Z,99184.06
2022-09-10T21:44:34.465Z,99190.03
2022-09-10T21:46:36.861Z,99189.06
2022-09-10T21:48:40.418Z,99174.03
2022-09-10T21:50:42.505Z,99179.25
2022-09-10T21:52:44.483Z,99179.50
2022-09-10T21:54:46.410Z,99168.84
2022-09-10T21:56:49.591Z,99175.16
2022-09-10T21:58:56.737Z,99173.72
2022-09-10T22:00:59.377Z,99175.44
2022-09-10T22:03:01.647Z,99176.81
2022-09-10T22:05:06.509Z,99174.19
2022-09-10T22:07:08.468Z,99181.66
2022-09-10T22:09:14.551Z,99184.50
2022-09-10T22:11:25.753Z,99185.63
2022-09-10T22:13:28.629Z,99188.63
2022-09-10T22:15:31.121Z,99185.16
2022-09-10T22:17:33.197Z,99200.00
2022-09-10T22:19:35.868Z,99211.81
2022-09-10T22:21:41.288Z,99209.72
2022-09-10T22:23:44.851Z,99216.63
2022-09-10T22:25:47.140Z,99219.59
2022-09-10T22:27:49.704Z,99214.16
2022-09-10T22:29:52.188Z,99215.28
2022-09-10T22:31:54.595Z,99216.38
2022-09-10T22:34:04.643Z,99221.47
2022-09-10T22:36:09.629Z,99220.75
2022-09-10T22:38:16.849Z,99217.88
2022-09-10T22:40:25.240Z,99227.31
2022-09-10T22:42:30.502Z,99223.69
2022-09-10T22:44:32.736Z,99225.78
2022-09-10T22:46:38.910Z,99226.63
2022-09-10T22:48:43.573Z,99223.56
2022-09-10T22:50:45.598Z,99221.94
2022-09-10T22:52:50.616Z,99223.81
2022-09-10T22:54:52.770Z,99228.50
2022-09-10T22:56:54.831Z,99233.44
2022-09-10T22:58:58.900Z,99229.97
2022-09-10T23:01:06.779Z,99228.63
2022-09-10T23:03:08.938Z,99232.69
2022-09-10T23:05:13.727Z,99232.09
2022-09-10T23:07:16.428Z,99237.75
2022-09-10T23:09:18.765Z,99235.28
2022-09-10T23:11:23.810Z,99237.25
2022-09-10T23:13:26.341Z,99239.13
2022-09-10T23:15:31.813Z,99228.47
2022-09-10T23:17:34.403Z,99225.75
2022-09-10T23:19:36.404Z,99235.66
2022-09-10T23:21:42.831Z,99224.03
2022-09-10T23:23:50.026Z,99234.03
2022-09-10T23:25:56.133Z,99227.88
2022-09-10T23:27:58.123Z,99227.13
2022-09-10T23:30:00.296Z,99228.09
2022-09-10T23:32:02.417Z,99228.22
2022-09-10T23:34:06.941Z,99227.97
2022-09-10T23:36:11.796Z,99235.88
2022-09-10T23:38:13.975Z,99230.53
2022-09-10T23:40:15.991Z,99228.81
2022-09-10T23:42:17.986Z,99234.53
2022-09-10T23:44:23.106Z,99228.31
2022-09-10T23:46:25.665Z,99226.47
2022-09-10T23:48:28.380Z,99240.06
2022-09-10T23:50:30.630Z,99234.72
2022-09-10T23:52:33.201Z,99228.56
2022-09-10T23:54:35.322Z,99232.41
2022-09-10T23:56:37.971Z,99238.69
2022-09-10T23:58:40.543Z,99236.22
